createdAt,value
2019-01-20T00:00:34.443Z,99.90
2019-01-20T00:03:15.316Z,99.90
2019-01-20T00:05:55.695Z,99.90
2019-01-20T00:08:36.252Z,99.90
2019-01-20T00:11:17.234Z,99.90
2019-01-20T00:13:58.147Z,99.90
2019-01-20T00:16:38.893Z,99.90
2019-01-20T00:19:19.275Z,99.90
2019-01-20T00:22:00.030Z,99.90
2019-01-20T00:24:41.071Z,99.90
2019-01-20T00:27:21.458Z,99.90
2019-01-20T00:30:02.399Z,99.90
2019-01-20T00:32:43.228Z,99.90
2019-01-20T00:35:24.514Z,99.90
2019-01-20T00:38:05.666Z,99.90
2019-01-20T00:40:46.570Z,99.90
2019-01-20T00:43:27.591Z,99.90
2019-01-20T00:46:08.135Z,99.90
2019-01-20T00:48:48.939Z,99.90
2019-01-20T00:51:29.968Z,99.90
2019-01-20T00:54:10.737Z,99.90
2019-01-20T00:56:51.133Z,99.90
2019-01-20T00:59:32.209Z,99.90
2019-01-20T01:02:12.895Z,99.90
2019-01-20T01:04:53.423Z,99.90
2019-01-20T01:07:34.430Z,99.90
2019-01-20T01:10:14.868Z,99.90
2019-01-20T01:12:55.715Z,99.90
2019-01-20T01:15:36.177Z,99.90
2019-01-20T01:18:04.836Z,99.90
2019-01-20T01:20:52.656Z,99.90
2019-01-20T01:23:21.129Z,99.90
2019-01-20T01:26:08.948Z,99.90
2019-01-20T01:28:49.657Z,99.90
2019-01-20T01:31:30.327Z,99.90
2019-01-20T01:34:11.042Z,99.90
2019-01-20T01:36:51.910Z,99.90
2019-01-20T01:39:33.017Z,99.90
2019-01-20T01:42:13.911Z,99.90
2019-01-20T01:44:54.527Z,99.90
2019-01-20T01:47:35.059Z,99.90
2019-01-20T01:50:15.758Z,99.90
2019-01-20T01:52:54.555Z,99.90
2019-01-20T01:55:35.577Z,99.90
2019-01-20T01:58:16.273Z,99.90
2019-01-20T02:00:57.151Z,99.90
2019-01-20T02:03:38.113Z,99.90
2019-01-20T02:06:19.242Z,99.90
2019-01-20T02:09:00.449Z,99.90
2019-01-20T02:11:46.809Z,99.90
2019-01-20T02:14:24.190Z,99.90
2019-01-20T02:17:05.149Z,99.90
2019-01-20T02:19:45.968Z,99.90
2019-01-20T02:22:26.920Z,99.90
2019-01-20T02:25:07.736Z,99.90
2019-01-20T02:27:49.609Z,99.90
2019-01-20T02:30:30.343Z,99.90
2019-01-20T02:33:10.883Z,99.90
2019-01-20T02:35:51.614Z,99.90
2019-01-20T02:38:32.367Z,99.90
2019-01-20T02:41:13.219Z,99.90
2019-01-20T02:43:53.979Z,99.90
2019-01-20T02:46:34.497Z,99.90
2019-01-20T02:49:15.432Z,99.90
2019-01-20T02:51:57.061Z,99.90
2019-01-20T02:54:37.643Z,99.90
2019-01-20T02:57:18.350Z,99.90
2019-01-20T02:59:59.022Z,99.90
2019-01-20T03:02:40.099Z,99.90
2019-01-20T03:05:20.962Z,99.90
2019-01-20T03:08:01.539Z,99.90
2019-01-20T03:10:43.839Z,99.90
2019-01-20T03:13:24.670Z,99.90
2019-01-20T03:16:05.783Z,99.90
2019-01-20T03:18:47.008Z,99.90
2019-01-20T03:21:27.506Z,99.90
2019-01-20T03:24:08.413Z,99.90
2019-01-20T03:26:48.915Z,99.90
2019-01-20T03:29:29.655Z,99.90
2019-01-20T03:32:10.460Z,99.90
2019-01-20T03:34:50.993Z,99.90
2019-01-20T03:37:32.076Z,99.90
2019-01-20T03:40:12.750Z,99.90
2019-01-20T03:42:53.562Z,99.90
2019-01-20T03:45:34.635Z,99.90
2019-01-20T03:48:15.728Z,99.90
2019-01-20T03:50:56.600Z,99.90
2019-01-20T03:53:37.411Z,99.90
2019-01-20T03:56:16.141Z,99.90
2019-01-20T03:59:04.410Z,99.90
2019-01-20T04:01:45.269Z,99.90
2019-01-20T04:04:25.969Z,99.90
2019-01-20T04:07:06.829Z,99.90
2019-01-20T04:09:47.443Z,99.90
2019-01-20T04:12:28.415Z,99.90
2019-01-20T04:15:08.909Z,99.90
2019-01-20T04:17:50.059Z,99.90
2019-01-20T04:20:30.872Z,99.90
2019-01-20T04:23:11.586Z,99.90
2019-01-20T04:25:52.147Z,99.90
2019-01-20T04:28:32.794Z,99.90
2019-01-20T04:31:13.772Z,99.90
2019-01-20T04:33:54.317Z,99.90
2019-01-20T04:36:35.062Z,99.90
2019-01-20T04:39:15.603Z,99.90
2019-01-20T04:41:56.318Z,99.90
2019-01-20T04:44:37.041Z,99.90
2019-01-20T04:47:18.057Z,99.90
2019-01-20T04:49:58.632Z,99.90
2019-01-20T04:52:39.151Z,99.90
2019-01-20T04:55:20.082Z,99.90
2019-01-20T04:58:00.455Z,99.90
2019-01-20T05:00:41.255Z,99.90
2019-01-20T05:03:22.260Z,99.90
2019-01-20T05:06:03.012Z,99.90
2019-01-20T05:08:43.756Z,99.90
2019-01-20T05:11:24.664Z,99.90
2019-01-20T05:14:05.746Z,99.90
2019-01-20T05:16:46.404Z,99.90
2019-01-20T05:19:26.963Z,99.90
2019-01-20T05:22:07.470Z,99.90
2019-01-20T05:24:48.444Z,99.90
2019-01-20T05:27:29.505Z,99.90
2019-01-20T05:30:10.321Z,99.90
2019-01-20T05:32:50.724Z,99.90
2019-01-20T05:35:31.525Z,99.90
2019-01-20T05:38:14.832Z,99.90
2019-01-20T05:40:55.457Z,99.90
2019-01-20T05:43:36.370Z,99.90
2019-01-20T05:46:16.977Z,99.90
2019-01-20T05:48:58.871Z,99.90
2019-01-20T05:51:39.208Z,99.90
2019-01-20T05:54:20.061Z,99.90
2019-01-20T05:57:00.955Z,99.90
2019-01-20T05:59:41.887Z,99.90
2019-01-20T06:02:22.756Z,99.90
2019-01-20T06:04:51.305Z,99.90
2019-01-20T06:07:39.196Z,99.90
2019-01-20T06:10:27.010Z,99.90
2019-01-20T06:13:07.573Z,99.90
2019-01-20T06:15:48.587Z,99.90
2019-01-20T06:18:29.257Z,99.90
2019-01-20T06:21:09.892Z,99.90
2019-01-20T06:23:50.935Z,99.90
2019-01-20T06:26:31.529Z,99.90
2019-01-20T06:29:12.521Z,99.90
2019-01-20T06:31:53.416Z,99.90
2019-01-20T06:34:34.388Z,99.90
2019-01-20T06:37:14.929Z,99.90
2019-01-20T06:39:56.009Z,99.90
2019-01-20T06:42:36.443Z,99.90
2019-01-20T06:45:17.126Z,99.90
2019-01-20T06:47:58.095Z,99.90
2019-01-20T06:50:38.509Z,99.90
2019-01-20T06:53:19.201Z,99.90
2019-01-20T06:56:00.270Z,99.90
2019-01-20T06:58:41.064Z,99.90
2019-01-20T07:01:21.415Z,99.90
2019-01-20T07:04:02.032Z,99.90
2019-01-20T07:06:42.520Z,99.90
2019-01-20T07:09:23.528Z,99.90
2019-01-20T07:12:04.196Z,99.90
2019-01-20T07:14:44.711Z,99.90
2019-01-20T07:17:25.242Z,99.90
2019-01-20T07:20:05.840Z,99.90
2019-01-20T07:22:46.779Z,99.90
2019-01-20T07:25:27.906Z,99.90
2019-01-20T07:28:08.694Z,99.90
2019-01-20T07:30:49.681Z,99.90
2019-01-20T07:33:30.358Z,99.90
2019-01-20T07:36:10.853Z,99.90
2019-01-20T07:38:51.559Z,99.90
2019-01-20T07:41:32.163Z,99.90
2019-01-20T07:44:12.624Z,99.90
2019-01-20T07:46:53.557Z,99.90
2019-01-20T07:49:34.484Z,99.90
2019-01-20T07:52:14.973Z,99.90
2019-01-20T07:54:55.678Z,99.90
2019-01-20T07:57:36.715Z,99.90
2019-01-20T08:00:19.363Z,99.90
2019-01-20T08:03:00.253Z,99.90
2019-01-20T08:05:41.130Z,99.90
2019-01-20T08:08:21.766Z,99.90
2019-01-20T08:11:02.183Z,99.90
2019-01-20T08:13:42.907Z,99.90
2019-01-20T08:16:23.293Z,99.90
2019-01-20T08:19:04.246Z,99.90
2019-01-20T08:21:44.903Z,99.90
2019-01-20T08:24:25.489Z,99.90
2019-01-20T08:27:06.049Z,99.90
2019-01-20T08:29:46.571Z,99.90
2019-01-20T08:32:27.277Z,99.90
2019-01-20T08:41:05.323Z,99.90
2019-01-20T08:43:46.317Z,99.90
2019-01-20T08:46:26.873Z,99.90
2019-01-20T08:49:07.406Z,99.90
2019-01-20T08:51:48.205Z,99.90
2019-01-20T08:54:28.615Z,99.90
2019-01-20T08:57:09.496Z,99.90
2019-01-20T08:59:50.172Z,99.90
2019-01-20T09:02:30.876Z,99.90
2019-01-20T09:05:11.853Z,99.90
2019-01-20T09:07:52.291Z,99.90
2019-01-20T09:10:33.001Z,99.90
2019-01-20T09:13:13.978Z,99.90
2019-01-20T09:15:54.691Z,99.90
2019-01-20T09:18:35.511Z,99.90
2019-01-20T09:21:16.508Z,99.90
2019-01-20T09:23:57.153Z,99.90
2019-01-20T09:26:38.100Z,99.90
2019-01-20T09:29:19.264Z,99.90
2019-01-20T09:31:59.872Z,99.90
2019-01-20T09:34:40.770Z,99.90
2019-01-20T09:37:22.660Z,99.90
2019-01-20T09:40:03.758Z,99.90
2019-01-20T09:42:44.564Z,99.90
2019-01-20T09:45:26.380Z,99.90
2019-01-20T09:48:06.809Z,99.90
2019-01-20T09:50:47.735Z,99.90
2019-01-20T09:53:28.229Z,99.90
2019-01-20T09:56:09.131Z,99.90
2019-01-20T09:58:49.805Z,99.90
2019-01-20T10:01:30.849Z,99.90
2019-01-20T10:04:11.730Z,99.90
2019-01-20T10:06:52.961Z,99.90
2019-01-20T10:09:33.855Z,99.90
2019-01-20T10:12:02.371Z,99.90
2019-01-20T10:14:50.314Z,99.90
2019-01-20T10:17:38.308Z,99.90
2019-01-20T10:20:19.395Z,99.90
2019-01-20T10:23:00.289Z,99.90
2019-01-20T10:25:41.148Z,99.90
2019-01-20T10:28:21.828Z,99.90
2019-01-20T10:31:02.544Z,99.90
2019-01-20T10:33:43.177Z,99.90
2019-01-20T10:36:23.955Z,99.90
2019-01-20T10:39:05.947Z,99.90
2019-01-20T10:41:46.560Z,99.90
2019-01-20T10:44:27.525Z,99.90
2019-01-20T10:47:08.287Z,99.90
2019-01-20T10:49:49.228Z,99.90
2019-01-20T10:52:29.976Z,99.90
2019-01-20T10:55:10.462Z,99.90
2019-01-20T10:57:51.326Z,99.90
2019-01-20T11:00:33.344Z,99.90
2019-01-20T11:03:13.859Z,99.90
2019-01-20T11:05:54.538Z,99.90
2019-01-20T11:11:16.012Z,99.90
2019-01-20T11:14:09.446Z,99.90
2019-01-20T11:16:45.977Z,99.90
2019-01-20T11:19:26.697Z,99.90
2019-01-20T11:22:07.193Z,99.90
2019-01-20T11:24:48.034Z,99.90
2019-01-20T11:27:29.014Z,99.90
2019-01-20T11:30:09.713Z,99.90
2019-01-20T11:32:50.526Z,99.90
2019-01-20T11:35:30.984Z,99.90
2019-01-20T11:38:11.615Z,99.90
2019-01-20T11:40:52.427Z,99.90
2019-01-20T11:43:33.319Z,99.90
2019-01-20T11:46:14.072Z,99.90
2019-01-20T11:48:55.073Z,99.70
2019-01-20T11:51:35.842Z,98.00
2019-01-20T11:54:16.794Z,98.70
2019-01-20T11:56:57.896Z,97.80
2019-01-20T11:59:38.748Z,96.90
2019-01-20T12:02:22.554Z,97.20
2019-01-20T12:05:02.473Z,96.70
2019-01-20T12:07:43.179Z,96.90
2019-01-20T12:10:23.893Z,97.10
2019-01-20T12:13:06.374Z,96.30
2019-01-20T12:15:47.540Z,95.10
2019-01-20T12:18:28.246Z,95.30
2019-01-20T12:21:08.958Z,94.80
2019-01-20T12:23:50.167Z,95.60
2019-01-20T12:26:30.720Z,94.80
2019-01-20T12:29:11.391Z,95.80
2019-01-20T12:31:52.243Z,95.30
2019-01-20T12:34:33.359Z,95.60
2019-01-20T12:37:13.888Z,94.10
2019-01-20T12:39:54.794Z,93.70
2019-01-20T12:42:33.576Z,93.90
2019-01-20T12:45:21.377Z,94.60
2019-01-20T12:48:02.191Z,95.10
2019-01-20T12:50:30.737Z,93.40
2019-01-20T12:53:18.606Z,94.50
2019-01-20T12:56:06.435Z,93.70
2019-01-20T12:58:54.290Z,93.50
2019-01-20T13:01:34.801Z,92.10
2019-01-20T13:04:15.491Z,89.90
2019-01-20T13:06:56.096Z,91.00
2019-01-20T13:09:37.181Z,91.20
2019-01-20T13:12:17.741Z,91.00
2019-01-20T13:14:58.568Z,91.50
2019-01-20T13:17:40.673Z,90.80
2019-01-20T13:20:21.728Z,90.50
2019-01-20T13:23:02.473Z,90.30
2019-01-20T13:25:43.433Z,91.00
2019-01-20T13:28:23.800Z,92.10
2019-01-20T13:31:06.273Z,91.30
2019-01-20T13:33:47.400Z,91.90
2019-01-20T13:36:28.315Z,92.40
2019-01-20T13:39:09.234Z,92.60
2019-01-20T13:41:50.269Z,93.80
2019-01-20T13:44:31.234Z,92.60
2019-01-20T13:47:15.038Z,92.70
2019-01-20T13:49:55.699Z,93.50
2019-01-20T13:52:36.343Z,93.10
2019-01-20T13:55:17.127Z,91.30
2019-01-20T13:57:58.060Z,92.90
2019-01-20T14:00:38.918Z,92.10
2019-01-20T14:03:19.747Z,92.70
2019-01-20T14:06:00.545Z,93.50
2019-01-20T14:08:44.291Z,93.70
2019-01-20T14:11:23.251Z,94.20
2019-01-20T14:14:03.924Z,95.80
2019-01-20T14:16:44.523Z,95.30
2019-01-20T14:19:25.542Z,95.80
2019-01-20T14:22:06.499Z,94.30
2019-01-20T14:24:47.454Z,94.30
2019-01-20T14:27:28.376Z,96.50
2019-01-20T14:30:09.097Z,98.30
2019-01-20T14:32:49.833Z,98.50
2019-01-20T14:35:30.255Z,98.50
2019-01-20T14:38:11.096Z,98.30
2019-01-20T14:40:52.072Z,97.40
2019-01-20T14:43:32.905Z,98.10
2019-01-20T14:46:13.961Z,98.40
2019-01-20T14:48:54.998Z,97.90
2019-01-20T14:51:36.001Z,98.40
2019-01-20T14:54:16.566Z,99.00
2019-01-20T14:56:57.067Z,99.50
2019-01-20T14:59:40.780Z,99.90
2019-01-20T15:02:21.508Z,99.90
2019-01-20T15:05:02.511Z,99.90
2019-01-20T15:07:43.300Z,99.90
2019-01-20T15:10:24.379Z,99.90
2019-01-20T15:13:04.884Z,99.90
2019-01-20T15:15:45.760Z,99.90
2019-01-20T15:18:26.218Z,99.90
2019-01-20T15:21:07.063Z,99.90
2019-01-20T15:23:47.625Z,99.90
2019-01-20T15:26:28.509Z,99.90
2019-01-20T15:29:09.124Z,99.90
2019-01-20T15:31:49.504Z,99.90
2019-01-20T15:34:30.528Z,99.90
2019-01-20T15:37:11.265Z,99.90
2019-01-20T15:39:52.034Z,99.90
2019-01-20T15:42:32.522Z,99.90
2019-01-20T15:45:16.465Z,99.90
2019-01-20T15:47:55.758Z,99.90
2019-01-20T15:50:36.298Z,99.90
2019-01-20T15:53:17.214Z,99.90
2019-01-20T15:55:57.801Z,99.90
2019-01-20T15:58:38.312Z,99.90
2019-01-20T16:01:19.094Z,99.90
2019-01-20T16:03:59.962Z,99.90
2019-01-20T16:06:40.639Z,99.90
2019-01-20T16:09:21.325Z,99.90
2019-01-20T16:12:01.912Z,99.90
2019-01-20T16:14:42.644Z,99.90
2019-01-20T16:17:21.535Z,99.90
2019-01-20T16:23:19.307Z,99.90
2019-01-20T16:25:59.830Z,99.90
2019-01-20T16:28:40.507Z,99.90
2019-01-20T16:31:21.434Z,99.90
2019-01-20T16:34:02.423Z,99.90
2019-01-20T16:36:43.425Z,99.90
2019-01-20T16:39:25.715Z,99.90
2019-01-20T16:42:06.132Z,99.90
2019-01-20T16:44:46.517Z,99.90
2019-01-20T16:47:27.092Z,99.90
2019-01-20T16:50:07.472Z,99.90
2019-01-20T16:52:47.948Z,99.90
2019-01-20T16:55:28.645Z,99.90
2019-01-20T16:58:09.540Z,99.90
2019-01-20T17:00:50.282Z,99.90
2019-01-20T17:03:30.919Z,99.90
2019-01-20T17:06:12.039Z,99.90
2019-01-20T17:08:52.743Z,99.90
2019-01-20T17:11:33.178Z,99.90
2019-01-20T17:14:13.944Z,99.90
2019-01-20T17:16:54.525Z,99.90
2019-01-20T17:19:35.373Z,99.90
2019-01-20T17:22:15.872Z,99.90
2019-01-20T17:24:56.687Z,99.90
2019-01-20T17:27:37.424Z,99.90
2019-01-20T17:30:18.427Z,99.90
2019-01-20T17:32:59.320Z,99.90
2019-01-20T17:35:40.191Z,99.90
2019-01-20T17:38:21.008Z,99.90
2019-01-20T17:41:01.645Z,99.90
2019-01-20T17:43:42.293Z,99.90
2019-01-20T17:46:22.992Z,99.90
2019-01-20T17:49:03.768Z,99.90
2019-01-20T17:51:44.242Z,99.90
2019-01-20T17:54:25.387Z,99.90
2019-01-20T17:57:06.188Z,99.90
2019-01-20T17:59:47.120Z,99.90
2019-01-20T18:02:27.743Z,99.90
2019-01-20T18:05:08.608Z,99.90
2019-01-20T18:07:49.613Z,99.90
2019-01-20T18:10:30.323Z,99.90
2019-01-20T18:13:11.332Z,99.90
2019-01-20T18:15:54.779Z,99.90
2019-01-20T18:18:34.174Z,99.90
2019-01-20T18:21:14.919Z,99.90
2019-01-20T18:23:55.699Z,99.90
2019-01-20T18:26:36.194Z,99.90
2019-01-20T18:29:17.265Z,99.90
2019-01-20T18:31:58.099Z,99.90
2019-01-20T18:34:38.976Z,99.90
2019-01-20T18:37:19.832Z,99.90
2019-01-20T18:40:00.443Z,99.90
2019-01-20T18:42:41.218Z,99.90
2019-01-20T18:45:22.229Z,99.90
2019-01-20T18:48:02.734Z,99.90
2019-01-20T18:50:43.401Z,99.90
2019-01-20T18:53:23.967Z,99.90
2019-01-20T18:56:04.459Z,99.90
2019-01-20T18:58:45.405Z,99.90
2019-01-20T19:01:25.923Z,99.90
2019-01-20T19:04:06.431Z,99.90
2019-01-20T19:06:47.093Z,99.90
2019-01-20T19:09:28.060Z,99.90
2019-01-20T19:12:08.951Z,99.90
2019-01-20T19:14:49.777Z,99.90
2019-01-20T19:17:30.537Z,99.90
2019-01-20T19:20:11.529Z,99.90
2019-01-20T19:22:52.248Z,99.90
2019-01-20T19:25:33.023Z,99.90
2019-01-20T19:28:14.150Z,99.90
2019-01-20T19:30:54.919Z,99.90
2019-01-20T19:33:35.670Z,99.90
2019-01-20T19:36:16.665Z,99.90
2019-01-20T19:38:57.562Z,99.90
2019-01-20T19:41:38.312Z,99.90
2019-01-20T19:44:18.729Z,99.90
2019-01-20T19:46:59.301Z,99.90
2019-01-20T19:49:40.152Z,99.90
2019-01-20T19:52:20.677Z,99.90
2019-01-20T19:55:01.064Z,99.90
2019-01-20T19:57:42.134Z,99.90
2019-01-20T20:00:23.882Z,99.90
2019-01-20T20:03:04.181Z,99.90
2019-01-20T20:05:44.922Z,99.90
2019-01-20T20:08:25.556Z,99.90
2019-01-20T20:11:06.242Z,99.90
2019-01-20T20:13:47.180Z,99.90
2019-01-20T20:16:28.384Z,99.90
2019-01-20T20:19:09.665Z,99.90
2019-01-20T20:21:50.572Z,99.90
2019-01-20T20:24:31.363Z,99.90
2019-01-20T20:27:12.016Z,99.90
2019-01-20T20:29:52.563Z,99.90
2019-01-20T20:32:33.444Z,99.90
2019-01-20T20:35:14.205Z,99.90
2019-01-20T20:37:55.192Z,99.90
2019-01-20T20:40:36.249Z,99.90
2019-01-20T20:43:17.117Z,99.90
2019-01-20T20:45:58.076Z,99.90
2019-01-20T20:48:39.056Z,99.90
2019-01-20T20:51:19.779Z,99.90
2019-01-20T20:54:00.361Z,99.90
2019-01-20T20:56:41.120Z,99.90
2019-01-20T20:59:21.721Z,99.90
2019-01-20T21:02:02.353Z,99.90
2019-01-20T21:04:42.898Z,99.90
2019-01-20T21:07:23.864Z,99.90
2019-01-20T21:10:04.748Z,99.90
2019-01-20T21:12:45.482Z,99.90
2019-01-20T21:15:26.350Z,99.90
2019-01-20T21:18:07.296Z,99.90
2019-01-20T21:20:48.154Z,99.90
2019-01-20T21:23:29.029Z,99.90
2019-01-20T21:26:10.014Z,99.90
2019-01-20T21:28:51.063Z,99.90
2019-01-20T21:31:32.185Z,99.90
2019-01-20T21:34:12.792Z,99.90
2019-01-20T21:36:53.352Z,99.90
2019-01-20T21:39:33.954Z,99.90
2019-01-20T21:42:14.925Z,99.90
2019-01-20T21:44:55.823Z,99.90
2019-01-20T21:47:36.707Z,99.90
2019-01-20T21:50:17.601Z,99.90
2019-01-20T21:52:58.429Z,99.90
2019-01-20T21:55:39.302Z,99.90
2019-01-20T21:58:20.210Z,99.90
2019-01-20T22:01:00.708Z,99.90
2019-01-20T22:03:41.618Z,99.90
2019-01-20T22:06:22.400Z,99.90
2019-01-20T22:09:03.526Z,99.90
2019-01-20T22:11:44.092Z,99.90
2019-01-20T22:14:25.228Z,99.90
2019-01-20T22:17:06.237Z,99.90
2019-01-20T22:19:47.187Z,99.90
2019-01-20T22:22:28.106Z,99.90
2019-01-20T22:25:08.769Z,99.90
2019-01-20T22:27:49.864Z,99.90
2019-01-20T22:30:30.703Z,99.90
2019-01-20T22:33:11.472Z,99.90
2019-01-20T22:35:52.404Z,99.90
2019-01-20T22:38:32.867Z,99.90
2019-01-20T22:41:13.890Z,99.90
2019-01-20T22:43:54.593Z,99.90
2019-01-20T22:46:35.157Z,99.90
2019-01-20T22:49:15.815Z,99.90
2019-01-20T22:51:56.683Z,99.90
2019-01-20T22:54:37.568Z,99.90
2019-01-20T22:57:18.422Z,99.90
2019-01-20T22:59:59.017Z,99.90
2019-01-20T23:02:39.721Z,99.90
2019-01-20T23:05:20.352Z,99.90
2019-01-20T23:08:00.785Z,99.90
2019-01-20T23:10:41.694Z,99.90
2019-01-20T23:13:22.412Z,99.90
2019-01-20T23:16:03.366Z,99.90
2019-01-20T23:18:44.271Z,99.90
2019-01-20T23:21:25.034Z,99.90
2019-01-20T23:24:05.800Z,99.90
2019-01-20T23:26:46.633Z,99.90
2019-01-20T23:29:27.371Z,99.90
2019-01-20T23:32:08.289Z,99.90
2019-01-20T23:34:49.083Z,99.90
2019-01-20T23:37:29.775Z,99.90
2019-01-20T23:40:10.676Z,99.90
2019-01-20T23:42:51.032Z,99.90
2019-01-20T23:45:31.843Z,99.90
2019-01-20T23:48:12.320Z,99.90
2019-01-20T23:50:53.206Z,99.90
2019-01-20T23:53:33.977Z,99.90
2019-01-20T23:56:14.523Z,99.90
2019-01-20T23:58:55.054Z,99.90
